Time;durP1;ratioP1;P1;durP2;ratioP2;P2;SDS_P1;SDS_P2;PMS_P1;PMS_P2;Temp;Humidity;BMP_temperature;BMP_pressure;BME280_temperature;BME280_humidity;BME280_pressure;Samples;Min_cycle;Max_cycle;Signal;HPM_P1;HPM_P2
2021/12/05 00:22:59;;;;;;;1.50;0.60;;;4.80;99.90;;;;;;20670788;28;20048;-42
2021/12/05 02:29:23;;;;;;;5.65;1.33;;;4.70;99.90;;;;;;20653909;28;20049;-42
2021/12/05 02:47:27;;;;;;;3.25;1.30;;;4.40;99.90;;;;;;20650329;28;20421;-42
2021/12/05 02:57:52;;;;;;;2.20;1.10;;;4.40;99.90;;;;;;20652554;28;20037;-42
2021/12/05 03:07:58;;;;;;;6.85;1.20;;;4.20;99.90;;;;;;20645788;28;20549;-42
2021/12/05 03:17:59;;;;;;;2.03;0.80;;;4.20;99.90;;;;;;20643887;28;20516;-42
2021/12/05 03:28:01;;;;;;;5.70;1.20;;;4.20;99.90;;;;;;20643535;28;20050;-42
2021/12/05 03:38:04;;;;;;;2.78;0.70;;;4.20;99.90;;;;;;21210620;23;20042;-41
2021/12/05 03:48:06;;;;;;;2.13;0.70;;;4.30;99.90;;;;;;20818092;28;20426;-40
2021/12/05 03:58:07;;;;;;;6.95;1.20;;;4.40;99.90;;;;;;20821019;28;20037;-40
2021/12/05 04:08:11;;;;;;;5.03;1.77;;;4.40;99.90;;;;;;20822855;28;20079;-40
2021/12/05 04:18:12;;;;;;;5.90;1.88;;;4.50;99.90;;;;;;20825374;28;20044;-41
2021/12/05 04:28:14;;;;;;;3.13;1.27;;;4.50;99.90;;;;;;20809836;28;20481;-41
2021/12/05 04:38:15;;;;;;;3.75;1.30;;;4.60;99.90;;;;;;20836058;28;20040;-40
2021/12/05 04:48:16;;;;;;;4.65;1.40;;;4.50;99.90;;;;;;20845535;28;20041;-41
2021/12/05 04:58:18;;;;;;;6.78;2.72;;;4.50;99.90;;;;;;20834164;28;20037;-40
2021/12/05 05:08:19;;;;;;;6.80;1.70;;;4.50;99.90;;;;;;20837050;28;20036;-40
2021/12/05 05:18:22;;;;;;;5.57;1.95;;;4.60;99.90;;;;;;20834048;28;20037;-40
2021/12/05 05:28:56;;;;;;;5.03;1.75;;;4.50;99.90;;;;;;20836444;28;20479;-41
2021/12/05 05:49:50;;;;;;;4.95;1.83;;;4.60;99.90;;;;;;20815033;28;20037;-41
2021/12/05 05:59:54;;;;;;;8.30;2.60;;;4.60;99.90;;;;;;20822205;28;20048;-41
2021/12/05 06:09:55;;;;;;;6.85;2.15;;;4.60;99.90;;;;;;20832149;28;20045;-41
2021/12/05 06:19:56;;;;;;;6.25;1.80;;;4.60;99.90;;;;;;20831166;28;20048;-41
2021/12/05 06:30:29;;;;;;;5.03;2.03;;;4.70;99.90;;;;;;20812567;28;20127;-40
2021/12/05 06:41:07;;;;;;;11.07;2.40;;;4.70;99.90;;;;;;20824736;28;20068;-41
2021/12/05 06:50:43;;;;;;;5.78;1.77;;;4.60;99.90;;;;;;20813663;28;21872;-41
2021/12/05 07:00:44;;;;;;;6.85;2.33;;;4.70;99.90;;;;;;20824283;28;20593;-41
2021/12/05 07:10:52;;;;;;;4.93;1.98;;;4.70;99.90;;;;;;20826357;28;20041;-41
2021/12/05 07:51:43;;;;;;;5.35;2.15;;;4.80;99.90;;;;;;20811836;28;20049;-41
2021/12/05 08:22:25;;;;;;;4.03;1.50;;;4.70;99.90;;;;;;20821235;28;20052;-41
2021/12/05 10:46:10;;;;;;;7.57;2.50;;;5.20;99.90;;;;;;20813915;28;20516;-41
2021/12/05 10:56:24;;;;;;;10.70;2.00;;;5.40;99.90;;;;;;20818000;28;20392;-41
2021/12/05 11:06:31;;;;;;;8.85;2.50;;;5.50;99.90;;;;;;20818579;28;20054;-41
2021/12/05 11:16:34;;;;;;;9.70;3.30;;;5.50;99.90;;;;;;20819272;28;20036;-41
2021/12/05 11:26:37;;;;;;;9.88;1.85;;;5.40;99.90;;;;;;20816218;28;20045;-41
2021/12/05 11:36:39;;;;;;;6.88;3.08;;;5.40;99.90;;;;;;20816226;28;20057;-41
2021/12/05 11:46:44;;;;;;;7.15;2.92;;;5.50;99.90;;;;;;20835163;28;20220;-41
2021/12/05 11:57:20;;;;;;;5.88;2.17;;;5.50;99.90;;;;;;20831525;28;20037;-41
2021/12/05 12:07:24;;;;;;;10.35;2.67;;;5.60;99.90;;;;;;20833969;28;20033;-42
2021/12/05 12:17:26;;;;;;;7.85;2.70;;;5.70;99.90;;;;;;20836594;28;20042;-41
2021/12/05 12:27:27;;;;;;;7.28;2.42;;;5.80;99.90;;;;;;20838344;28;20249;-41
2021/12/05 12:37:29;;;;;;;9.82;3.70;;;5.90;99.90;;;;;;20836376;28;20075;-41
2021/12/05 12:47:42;;;;;;;7.55;2.88;;;5.90;99.90;;;;;;20842590;28;20041;-42
2021/12/05 12:57:43;;;;;;;12.77;3.95;;;5.80;99.90;;;;;;20838772;28;20404;-41
2021/12/05 13:18:23;;;;;;;12.07;4.00;;;6.00;99.90;;;;;;20833719;28;20052;-42
2021/12/05 13:28:28;;;;;;;12.65;3.72;;;6.00;99.90;;;;;;20837495;28;20044;-42
2021/12/05 13:38:40;;;;;;;7.43;2.55;;;5.90;99.90;;;;;;20835311;28;20064;-42
2021/12/05 13:48:41;;;;;;;9.35;3.38;;;5.90;99.90;;;;;;20815350;28;20588;-42
2021/12/05 13:58:46;;;;;;;8.38;3.20;;;5.80;99.90;;;;;;20835530;28;20029;-42
2021/12/05 14:08:48;;;;;;;7.68;2.65;;;5.80;99.90;;;;;;20780539;28;20497;-42
2021/12/05 14:18:54;;;;;;;8.57;3.13;;;5.70;99.90;;;;;;20829580;28;20041;-42
2021/12/05 14:28:57;;;;;;;4.45;2.03;;;5.80;99.90;;;;;;20826121;28;20519;-42
2021/12/05 14:39:29;;;;;;;8.40;3.13;;;5.70;99.90;;;;;;20825542;28;20045;-42
2021/12/05 14:49:36;;;;;;;13.32;3.20;;;5.80;99.90;;;;;;20797637;28;20064;-42
2021/12/05 14:59:39;;;;;;;9.53;2.87;;;5.80;99.90;;;;;;20816138;28;20037;-42
2021/12/05 15:09:44;;;;;;;7.25;2.88;;;5.80;99.90;;;;;;20804107;28;20064;-42
2021/12/05 15:19:50;;;;;;;7.45;2.70;;;5.80;99.90;;;;;;20810643;28;20040;-42
2021/12/05 15:29:58;;;;;;;6.00;2.22;;;5.70;99.90;;;;;;20822098;28;20455;-42
2021/12/05 15:40:04;;;;;;;6.50;1.92;;;5.60;99.90;;;;;;20822345;28;20033;-42
2021/12/05 15:50:30;;;;;;;5.83;2.17;;;5.60;99.90;;;;;;20779243;28;20063;-42
2021/12/05 16:00:42;;;;;;;8.95;2.95;;;5.50;99.90;;;;;;20808653;28;20048;-42
2021/12/05 16:10:49;;;;;;;8.05;3.00;;;5.50;99.90;;;;;;20826488;28;20045;-42
2021/12/05 16:20:54;;;;;;;;;;;5.50;99.90;;;;;;20827907;28;20049;-42
2021/12/05 16:31:07;;;;;;;14.15;6.80;;;5.50;99.90;;;;;;20841978;28;19917;-42
2021/12/05 16:41:11;;;;;;;10.70;3.90;;;5.50;99.90;;;;;;20838475;28;20741;-42
2021/12/05 16:51:14;;;;;;;6.10;2.08;;;5.50;99.90;;;;;;20839340;28;20052;-42
2021/12/05 17:01:19;;;;;;;9.60;3.55;;;5.50;99.90;;;;;;20838793;28;20041;-42
2021/12/05 17:11:22;;;;;;;10.77;4.57;;;5.50;99.90;;;;;;20842166;28;20048;-42
2021/12/05 17:21:36;;;;;;;7.97;3.05;;;5.50;99.90;;;;;;20836041;28;20037;-42
2021/12/05 17:31:43;;;;;;;10.30;3.65;;;5.50;99.90;;;;;;20839679;28;20052;-42
2021/12/05 17:41:53;;;;;;;10.23;3.53;;;5.50;99.90;;;;;;20840968;28;20041;-42
2021/12/05 17:51:58;;;;;;;10.23;3.58;;;5.40;99.90;;;;;;20843558;28;20045;-42
2021/12/05 18:12:36;;;;;;;13.90;4.63;;;5.40;99.90;;;;;;20801347;28;20041;-42
2021/12/05 18:22:38;;;;;;;13.82;3.95;;;5.30;99.90;;;;;;20820786;28;20068;-42
2021/12/05 18:32:40;;;;;;;10.18;4.13;;;5.30;99.90;;;;;;20812428;28;20064;-42
2021/12/05 18:42:43;;;;;;;7.45;3.60;;;5.30;99.90;;;;;;20820551;28;20045;-42
2021/12/05 18:52:45;;;;;;;10.65;3.55;;;5.30;99.90;;;;;;20825278;28;20467;-42
2021/12/05 19:13:06;;;;;;;7.45;3.47;;;5.20;99.90;;;;;;20824715;28;20052;-42
2021/12/05 19:23:07;;;;;;;7.53;3.58;;;5.20;99.90;;;;;;20817767;28;20629;-42
2021/12/05 19:33:11;;;;;;;6.30;2.75;;;5.20;99.90;;;;;;20815671;28;20056;-42
2021/12/05 19:43:13;;;;;;;10.18;3.58;;;5.20;99.90;;;;;;20817812;28;20045;-42
2021/12/05 19:53:15;;;;;;;9.52;3.40;;;5.20;99.90;;;;;;20816014;28;20628;-42
2021/12/05 20:03:16;;;;;;;7.32;2.80;;;5.20;99.90;;;;;;20824591;28;20504;-42
2021/12/05 20:13:18;;;;;;;6.63;2.78;;;5.20;99.90;;;;;;20835570;28;20072;-42
2021/12/05 20:23:21;;;;;;;11.05;3.28;;;5.10;99.90;;;;;;20838970;28;20092;-42
2021/12/05 20:33:23;;;;;;;8.20;3.28;;;5.10;99.90;;;;;;20833722;28;20037;-42
2021/12/05 20:43:24;;;;;;;8.02;3.45;;;5.10;99.90;;;;;;20831509;28;20036;-42
2021/12/05 20:53:25;;;;;;;12.43;3.97;;;5.20;99.90;;;;;;20834625;28;20041;-42
2021/12/05 21:03:28;;;;;;;10.30;3.45;;;5.10;99.90;;;;;;20833647;28;20041;-42
2021/12/05 21:13:30;;;;;;;11.95;4.00;;;5.10;99.90;;;;;;20832896;28;20496;-42
2021/12/05 21:23:33;;;;;;;11.00;4.00;;;5.10;99.90;;;;;;20824191;28;20053;-42
2021/12/05 21:33:34;;;;;;;10.80;3.97;;;5.10;99.90;;;;;;20816547;28;20060;-42
2021/12/05 21:43:39;;;;;;;9.35;4.00;;;5.10;99.90;;;;;;20816722;28;20069;-42
2021/12/05 21:53:44;;;;;;;8.15;3.30;;;5.00;99.90;;;;;;20813763;28;20523;-42
2021/12/05 22:03:45;;;;;;;10.90;4.63;;;4.90;99.90;;;;;;20810613;28;20033;-42
2021/12/05 22:13:47;;;;;;;10.82;4.00;;;4.90;99.90;;;;;;20818511;28;20041;-42
2021/12/05 22:23:50;;;;;;;9.52;3.30;;;4.80;99.90;;;;;;20813515;28;20059;-42
2021/12/05 22:33:52;;;;;;;11.57;4.13;;;4.70;99.90;;;;;;20802570;28;20052;-42
2021/12/05 22:43:53;;;;;;;11.52;3.40;;;4.70;99.90;;;;;;20805458;28;20045;-42
2021/12/05 22:53:54;;;;;;;9.13;3.58;;;4.70;99.90;;;;;;20802564;28;21085;-42
2021/12/05 23:04:06;;;;;;;11.18;4.55;;;4.70;99.90;;;;;;20805330;28;20037;-42
2021/12/05 23:14:08;;;;;;;12.65;4.43;;;4.70;99.90;;;;;;20806244;28;20045;-42
2021/12/05 23:24:13;;;;;;;10.80;3.65;;;4.70;99.90;;;;;;20805052;28;20048;-42
2021/12/05 23:34:14;;;;;;;10.32;4.47;;;4.80;99.90;;;;;;20806289;28;20266;-42
2021/12/05 23:44:16;;;;;;;11.40;3.95;;;4.70;99.90;;;;;;20822302;28;20041;-42
2021/12/05 23:54:18;;;;;;;8.50;3.03;;;4.80;99.90;;;;;;20821946;28;20052;-42
